27 września 2022

Czas Kod Pogoda Temp. Widoczność Sufit Wiatr METAR/SPECI
19:00
M
17 °C 10 km+ 2.200 ft 270° 270° 9 kt METAR LFBC 271700Z AUTO 27009KT 240V310 9999 BKN022 BKN034 BKN040 17/14 Q1014 TEMPO 28015G25KT BKN020TCU BECMG 3000 RA
18:30
V
17 °C 10 km+ 4.500 ft 280° 280° 18 kt METAR LFBC 271630Z AUTO 28018KT 250V320 9999 FEW028 BKN045 BKN054 17/13 Q1014 TEMPO 28015G25KT BKN020TCU BECMG 3000 RA
18:00
V
18 °C 10 km+ - 290° 290° 13 kt METAR LFBC 271600Z AUTO 29013KT 260V330 9999 FEW027 SCT082 18/12 Q1014 TEMPO 28015G25KT 3000 SHRA BKN020TCU
17:30
V
19 °C 10 km+ 3.000 ft 300° 300° 9 kt METAR LFBC 271530Z AUTO 30009KT 260V330 9999 BKN030 BKN041 OVC052 19/13 Q1014 TEMPO 28015G25KT 3000 SHRA BKN020TCU
17:00
M
17 °C 10 km+ 2.900 ft 300° 300° 10 kt METAR LFBC 271500Z AUTO 30010KT 260V350 9999 -RA SCT024 BKN029 BKN034 17/13 Q1014 TEMPO 28015G25KT 3000 SHRA BKN020TCU
16:30
V
18 °C 10 km+ 5.000 ft 310° 310° 12 kt METAR LFBC 271430Z AUTO 31012KT 280V340 9999 FEW035/// SCT042/// BKN050/// //////TCU 18/12 Q1014 TEMPO 28015G25KT 3000 SHRA
16:00
V
19 °C 10 km+ - 300° 300° 13 kt METAR LFBC 271400Z AUTO 30013KT CAVOK 19/12 Q1014 TEMPO 28015G25KT 3000 SHRA SCT020TCU
15:30
V
19 °C 10 km+ 6.000 ft 290° 290° 10 kt METAR LFBC 271330Z AUTO 29010KT 260V330 9999 FEW034 OVC060 19/13 Q1014 TEMPO 3000 SHRA SCT020TCU BECMG 30015G25KT
15:00
V
17 °C 10 km+ 4.800 ft 270° 270° 8 kt METAR LFBC 271300Z AUTO 27008KT 9999 FEW025/// BKN048/// OVC054/// ///CB 17/13 Q1014 TEMPO 3000 SHRA BECMG 30015G25KT
14:30
V
17 °C 10 km+ 4.100 ft 290° 290° 8 kt METAR LFBC 271230Z AUTO 29008KT 250V320 9999 FEW023/// SCT029/// BKN041/// ///TCU 17/15 Q1014 TEMPO 28015G25KT 3000 SHRA
14:00
M
16 °C 6 km 3.100 ft 300° 300° 8 kt METAR LFBC 271200Z AUTO 30008KT 6000 RA SCT024/// BKN031/// BKN037/// ///TCU 16/14 Q1014 TEMPO 3000 SHRA
13:30
V
19 °C 10 km+ 4.500 ft 310° 310° 13 kt METAR LFBC 271130Z AUTO 31013KT 9999 SCT034 BKN045 OVC060 19/11 Q1014 TEMPO 3000 SHRA SCT020TCU BECMG 30015G25KT
13:00
V
19 °C 10 km+ 4.000 ft 290° 290° 11 kt METAR LFBC 271100Z AUTO 29011KT 260V320 9999 SCT033 BKN040 OVC064 19/12 Q1014 TEMPO 3000 SHRA SCT020TCU
12:30
V
19 °C 10 km+ 6.200 ft 290° 290° 9 kt METAR LFBC 271030Z AUTO 29009KT 250V330 9999 SCT030 OVC062 19/11 Q1014 TEMPO 3000 SHRA SCT020TCU BECMG 30015G25KT
12:00
V
18 °C 10 km+ - 280° 280° 9 kt METAR LFBC 271000Z AUTO 28009KT 240V320 CAVOK 18/12 Q1014 TEMPO 3000 SHRA SCT020TCU
11:30
V
17 °C 10 km+ - 310° 310° 3 kt METAR LFBC 270930Z AUTO 31003KT 240V350 CAVOK 17/11 Q1015 TEMPO 3000 SHRA SCT020TCU
11:00
V
17 °C 10 km+ 5.200 ft 340° 340° 7 kt METAR LFBC 270900Z AUTO 34007KT 300V010 9999 FEW032 SCT042 OVC052 17/11 Q1014 TEMPO 3000 SHRA SCT020TCU
10:30
V
17 °C 10 km+ 3.600 ft 340° 340° 7 kt METAR LFBC 270830Z AUTO 34007KT 300V020 9999 BKN036/// OVC140/// //////TCU 17/11 Q1014 TEMPO 3000 SHRA
10:00
V
17 °C 10 km+ - 320° 320° 8 kt METAR LFBC 270800Z AUTO 32008KT 280V340 CAVOK 17/10 Q1014 TEMPO 3000 SHRA SCT020TCU
09:30
V
16 °C 10 km+ 16.000 ft 330° 330° 6 kt METAR LFBC 270730Z AUTO 33006KT 300V360 9999 FEW034 SCT064 BKN160 16/10 Q1013 TEMPO 3000 SHRA SCT020TCU
09:00
V
16 °C 10 km+ 5.800 ft 340° 340° 6 kt METAR LFBC 270700Z AUTO 34006KT 9999 FEW039 BKN058 OVC150 16/10 Q1013 TEMPO 3000 SHRA SCT020TCU
08:30
V
16 °C 10 km+ 4.400 ft 320° 320° 6 kt METAR LFBC 270630Z AUTO 32006KT 9999 SCT038 BKN044 BKN056 16/09 Q1013 TEMPO 3000 SHRA SCT020TCU
08:00
V
16 °C 10 km+ 6.200 ft 320° 320° 6 kt METAR LFBC 270600Z AUTO 32006KT 290V350 9999 FEW039 OVC062 16/10 Q1013 TEMPO 3000 SHRA SCT020TCU
07:30
V
16 °C 10 km+ 6.000 ft 330° 330° 6 kt METAR LFBC 270530Z AUTO 33006KT 290V360 9999 FEW036 OVC060 16/10 Q1013 NOSIG
07:00
V
16 °C 10 km+ 6.200 ft 340° 340° 7 kt METAR LFBC 270500Z AUTO 34007KT 9999 FEW040 OVC062 16/10 Q1013 NOSIG
06:30
V
16 °C 10 km+ 6.000 ft 320° 320° 7 kt METAR LFBC 270430Z AUTO 32007KT 9999 FEW040 BKN060 OVC190 16/10 Q1013 NOSIG
06:00
V
16 °C 10 km+ 20.000 ft 320° 320° 7 kt METAR LFBC 270400Z AUTO 32007KT 290V350 9999 FEW035 OVC200 16/10 Q1012 NOSIG
05:30
V
16 °C 10 km+ 5.600 ft 310° 310° 8 kt METAR LFBC 270330Z AUTO 31008KT 9999 SCT035 BKN056 BKN190 16/10 Q1012 NOSIG
05:00
V
16 °C 10 km+ 5.800 ft 310° 310° 7 kt METAR LFBC 270300Z AUTO 31007KT 280V340 9999 FEW031 BKN058 OVC220 16/10 Q1012 NOSIG
04:30
V
16 °C 10 km+ 5.600 ft 320° 320° 6 kt METAR LFBC 270230Z AUTO 32006KT 280V340 9999 FEW031 OVC056 16/11 Q1012 NOSIG
04:00
V
16 °C 10 km+ 4.500 ft 320° 320° 7 kt METAR LFBC 270200Z AUTO 32007KT 290V350 9999 SCT036 BKN045 BKN060 16/10 Q1012 NOSIG
03:30
V
16 °C 10 km+ - 320° 320° 8 kt METAR LFBC 270130Z AUTO 32008KT 290V350 CAVOK 16/10 Q1012 NOSIG
03:00
V
16 °C 10 km+ 5.600 ft 320° 320° 8 kt METAR LFBC 270100Z AUTO 32008KT 290V350 9999 FEW034 BKN056 OVC250 16/11 Q1012 NOSIG
02:30
V
15 °C 10 km+ 4.100 ft 330° 330° 7 kt METAR LFBC 270030Z AUTO 33007KT 300V360 9999 FEW032 BKN041 BKN056 15/11 Q1012 NOSIG
02:00
V
15 °C 10 km+ 25.000 ft 340° 340° 6 kt METAR LFBC 270000Z AUTO 34006KT 310V020 9999 FEW032 SCT058 OVC250 15/11 Q1012 NOSIG
01:30
V
16 °C 10 km+ 5.800 ft 330° 330° 7 kt METAR LFBC 262330Z AUTO 33007KT 290V350 9999 FEW029 OVC058 16/12 Q1012 NOSIG
01:00
M
16 °C 10 km+ 2.900 ft 320° 320° 6 kt METAR LFBC 262300Z AUTO 32006KT 9999 BKN029 BKN037 BKN050 16/13 Q1012 NOSIG
00:30
V
16 °C 10 km+ 3.900 ft 330° 330° 9 kt METAR LFBC 262230Z AUTO 33009KT 290V350 9999 SCT025 SCT033 BKN039 16/14 Q1012 NOSIG
00:00
M
16 °C 10 km+ 2.600 ft 310° 310° 6 kt METAR LFBC 262200Z AUTO 31006KT 270V340 9999 FEW016/// BKN026/// BKN033/// //////TCU 16/14 Q1012 BECMG FEW011 BKN019

26 września 2022

Czas Kod Pogoda Temp. Widoczność Sufit Wiatr METAR/SPECI
23:30
V
16 °C 10 km+ 3.300 ft 300° 300° 7 kt METAR LFBC 262130Z AUTO 30007KT 9999 FEW007/// SCT027/// OVC033/// ///TCU 16/15 Q1012 BECMG FEW011 BKN019
23:00
I
16 °C 5 km 700 ft 300° 300° 9 kt METAR LFBC 262100Z AUTO 30009KT 260V340 5000 -RA BR BKN007/// OVC048/// //////TCU 16/15 Q1012 TEMPO 26015G25KT BECMG FEW011 BKN019
22:30
I
16 °C 3,1 km 1.200 ft 270° 270° 15 - 26 kt METAR LFBC 262030Z AUTO 27015G26KT 230V310 3100 +RA BR FEW007/// BKN012/// BKN019/// //////TCU 16/15 Q1012 BECMG 30010KT 9999 -RA BKN025
22:00
M
16 °C 6 km 1.900 ft 260° 260° 14 kt METAR LFBC 262000Z AUTO 26014KT 220V290 6000 RA FEW010/// BKN019/// BKN027/// //////TCU 16/14 Q1012 TEMPO 27020G35KT 4000 RA BKN008 BKN012
21:30
V
17 °C 8 km 3.400 ft 270° 270° 15 kt METAR LFBC 261930Z AUTO 27015KT 230V300 8000 -RA FEW022 SCT027 BKN034 17/14 Q1012 TEMPO 27020G35KT 4000 RA BKN008 BKN012
21:00
V
18 °C 10 km+ 3.200 ft 250° 250° 14 kt METAR LFBC 261900Z AUTO 25014KT 220V280 9999 BKN032 OVC038 18/12 Q1012 TEMPO 27020G35KT 4000 RA BKN008 BKN012
20:30
V
18 °C 10 km+ 4.000 ft 260° 260° 16 kt METAR LFBC 261830Z AUTO 26016KT 220V290 9999 FEW032 BKN040 OVC048 18/12 Q1012 TEMPO 27020G35KT 4000 RA BKN008 BKN012
20:00
V
18 °C 10 km+ 5.200 ft 270° 270° 12 kt METAR LFBC 261800Z AUTO 27012KT 230V290 9999 FEW033 BKN052 BKN074 18/11 Q1012 BECMG 27015G25KT BKN014
19:30
V
18 °C 10 km+ 9.200 ft 260° 260° 12 kt METAR LFBC 261730Z AUTO 26012KT 210V290 9999 FEW030 SCT074 OVC092 18/12 Q1013 BECMG 27015G25KT BKN014
19:00
V
17 °C 10 km+ 4.600 ft 270° 270° 11 kt METAR LFBC 261700Z AUTO 27011KT 240V300 9999 FEW030 OVC046 17/11 Q1013 BECMG 27015G25KT BKN014
18:30
V
17 °C 10 km+ 4.000 ft 280° 280° 12 kt METAR LFBC 261630Z AUTO 28012KT 9999 -RA FEW032 BKN040 OVC049 17/11 Q1013 BECMG 27015G25KT BKN014
18:00
V
19 °C 10 km+ 5.200 ft 270° 270° 15 - 26 kt METAR LFBC 261600Z AUTO 27015G26KT 240V300 9999 FEW038 SCT044 BKN052 19/10 Q1013 NOSIG
17:30
V
19 °C 10 km+ - 270° 270° 15 kt METAR LFBC 261530Z AUTO 27015KT 9999 FEW039 SCT062 19/10 Q1013 BECMG 27015G25KT
17:00
V
20 °C 10 km+ - 270° 270° 16 kt METAR LFBC 261500Z AUTO 27016KT 240V320 9999 FEW035 20/09 Q1014 BECMG 27015G25KT
16:30
V
20 °C 10 km+ 4.700 ft 280° 280° 13 kt METAR LFBC 261430Z AUTO 28013KT 240V320 9999 SCT037 BKN047 BKN064 20/11 Q1014 BECMG 27015G25KT
16:00
V
20 °C 10 km+ - 280° 280° 14 kt METAR LFBC 261400Z AUTO 28014KT 240V310 9999 SCT034 20/10 Q1014 BECMG 27015G25KT
15:30
V
20 °C 10 km+ 3.400 ft 250° 250° 14 kt METAR LFBC 261330Z AUTO 25014KT 220V280 9999 BKN034 BKN040 20/11 Q1014 BECMG 27015G25KT
15:00
V
20 °C 10 km+ 3.500 ft 270° 270° 10 kt METAR LFBC 261300Z AUTO 27010KT 240V300 9999 BKN035 BKN048 OVC160 20/11 Q1014 BECMG 27015G25KT
14:30
V
21 °C 10 km+ 3.500 ft 260° 260° 12 kt METAR LFBC 261230Z AUTO 26012KT 220V320 9999 BKN035 BKN160 21/11 Q1015 BECMG 27015G25KT
14:00
M
20 °C 10 km+ 2.900 ft 270° 270° 7 kt METAR LFBC 261200Z AUTO 27007KT 230V310 9999 BKN029 BKN041 BKN062 20/12 Q1015 BECMG 27015G25KT
13:30
M
20 °C 10 km+ 2.800 ft 270° 270° 8 kt METAR LFBC 261130Z AUTO 27008KT 210V300 9999 BKN028 BKN034 BKN058 20/12 Q1015 BECMG 27015G25KT
13:00
V
20 °C 10 km+ 3.500 ft 260° 260° 9 kt METAR LFBC 261100Z AUTO 26009KT 220V300 9999 SCT030 BKN035 BKN043 20/12 Q1015 BECMG 27015G25KT
12:30
V
21 °C 10 km+ 7.400 ft 250° 250° 8 kt METAR LFBC 261030Z AUTO 25008KT 200V320 9999 FEW033 SCT040 BKN074 21/11 Q1015 BECMG 27015G25KT
12:00
V
19 °C 10 km+ 17.000 ft 210° 210° 5 kt METAR LFBC 261000Z AUTO 21005KT 180V260 9999 FEW041 BKN170 19/11 Q1015 BECMG 27015G25KT
11:30
V
18 °C 10 km+ - 210° 210° 5 kt METAR LFBC 260930Z AUTO 21005KT 160V240 CAVOK 18/12 Q1015 BECMG 27015G25KT
11:00
V
16 °C 10 km+ - 190° 190° 4 kt METAR LFBC 260900Z AUTO 19004KT 160V220 CAVOK 16/12 Q1015 BECMG 27015G25KT
10:30
V
14 °C 10 km+ - 190° 190° 4 kt METAR LFBC 260830Z AUTO 19004KT 160V220 9999 FEW047 SCT170 14/12 Q1015 NOSIG
10:00
V
13 °C 10 km+ 8.400 ft 160° 160° 3 kt METAR LFBC 260800Z AUTO 16003KT 9999 SCT048 BKN084 BKN160 13/12 Q1015 NOSIG
09:30
V
10 °C 10 km+ - 150° 150° 3 kt METAR LFBC 260730Z AUTO 15003KT CAVOK 10/10 Q1015 NOSIG
09:00
V
8 °C 10 km+ - Var 000° 0 kt METAR LFBC 260700Z AUTO 00000KT CAVOK 08/08 Q1015 NOSIG
08:30
L
5 °C 1,4 km - Var 000° 0 kt METAR LFBC 260630Z AUTO 00000KT 7000 1400 R24/P2000 VV/// 05/05 Q1015 BECMG NSC
08:00
L
5 °C 500 m - Var 000° 0 kt METAR LFBC 260600Z AUTO 00000KT 0550 0500 R24/0900U FG VV/// 05/05 Q1015 BECMG CAVOK
07:30
L
6 °C 550 m - Var 000° 0 kt METAR LFBC 260530Z AUTO 00000KT 7000 0550 R24/0650D BCFG VV/// 06/05 Q1015 TEMPO 0500 FG BECMG NSC
07:00
L
6 °C 1 km - Var 000° 0 kt METAR LFBC 260500Z AUTO 00000KT 1300 1000 R24/1100D BR NSC 06/05 Q1015 TEMPO 0500 FG BKN001
06:30
V
6 °C 10 km+ - 360° 360° 1 kt METAR LFBC 260430Z AUTO 36001KT 9999 FEW046 06/05 Q1015 TEMPO 0500 FG BKN001
06:00
L
7 °C 6 km - 020° 020° 3 kt METAR LFBC 260400Z AUTO 02003KT 6000 VV/// 07/07 Q1016 TEMPO 0900 FG BKN005
05:30
V
7 °C 10 km+ - Var 000° 0 kt METAR LFBC 260330Z AUTO 00000KT CAVOK 07/06 Q1016 TEMPO 0900 FG BKN005
05:00
V
6 °C 10 km+ - Var Var 1 kt METAR LFBC 260300Z AUTO VRB01KT CAVOK 06/05 Q1016 TEMPO 0900 FG BKN005
04:30
V
8 °C 10 km+ - Var 000° 0 kt METAR LFBC 260230Z AUTO 00000KT CAVOK 08/07 Q1015 TEMPO 0900 FG BKN005
04:00
V
7 °C 10 km+ - Var 000° 0 kt METAR LFBC 260200Z AUTO 00000KT CAVOK 07/06 Q1016 TEMPO 0900 FG BKN005
03:30
V
6 °C 10 km+ - Var 000° 0 kt METAR LFBC 260130Z AUTO 00000KT CAVOK 06/05 Q1016 TEMPO 0900 FG BKN005
03:00
V
9 °C 10 km+ - Var 000° 0 kt METAR LFBC 260100Z AUTO 00000KT CAVOK 09/08 Q1016 TEMPO 0900 FG BKN005
02:30
V
9 °C 10 km+ - Var Var 1 kt METAR LFBC 260030Z AUTO VRB01KT CAVOK 09/08 Q1016 TEMPO 0900 FG BKN005
02:00
V
8 °C 10 km+ - 340° 340° 1 kt METAR LFBC 260000Z AUTO 34001KT CAVOK 08/08 Q1016 TEMPO 0900 FG BKN005
01:30
V
8 °C 10 km+ - Var 000° 0 kt METAR LFBC 252330Z AUTO 00000KT CAVOK 08/07 Q1016 TEMPO 0900 FG BKN005
01:00
V
8 °C 10 km+ - Var 000° 0 kt METAR LFBC 252300Z AUTO 00000KT CAVOK 08/06 Q1017 TEMPO 0900 FG BKN005
00:30
V
9 °C 10 km+ - Var 000° 0 kt METAR LFBC 252230Z AUTO 00000KT CAVOK 09/07 Q1017 TEMPO 0900 FG BKN005
00:00
V
10 °C 10 km+ - Var 000° 0 kt METAR LFBC 252200Z AUTO 00000KT CAVOK 10/08 Q1017 NOSIG

25 września 2022

Czas Kod Pogoda Temp. Widoczność Sufit Wiatr METAR/SPECI
23:30
V
11 °C 10 km+ - 340° 340° 2 kt METAR LFBC 252130Z AUTO 34002KT CAVOK 11/09 Q1017 NOSIG
23:00
V
12 °C 10 km+ - Var 000° 0 kt METAR LFBC 252100Z AUTO 00000KT CAVOK 12/09 Q1017 NOSIG
22:30
V
12 °C 10 km+ - Var 000° 0 kt METAR LFBC 252030Z AUTO 00000KT CAVOK 12/10 Q1017 NOSIG
22:00
V
13 °C 10 km+ - 310° 310° 1 kt METAR LFBC 252000Z AUTO 31001KT CAVOK 13/10 Q1017 NOSIG
21:30
V
14 °C 10 km+ - 320° 320° 2 kt METAR LFBC 251930Z AUTO 32002KT CAVOK 14/10 Q1017 NOSIG
21:00
V
15 °C 10 km+ - 310° 310° 2 kt METAR LFBC 251900Z AUTO 31002KT CAVOK 15/10 Q1017 NOSIG
20:30
V
15 °C 10 km+ - 320° 320° 2 kt METAR LFBC 251830Z AUTO 32002KT CAVOK 15/10 Q1016 NOSIG
20:00
V
16 °C 10 km+ - 320° 320° 4 kt METAR LFBC 251800Z AUTO 32004KT CAVOK 16/10 Q1016 NOSIG
19:30
V
17 °C 10 km+ - 330° 330° 5 kt METAR LFBC 251730Z AUTO 33005KT 290V360 CAVOK 17/10 Q1016 NOSIG
19:00
V
18 °C 10 km+ - 310° 310° 7 kt METAR LFBC 251700Z AUTO 31007KT 270V330 CAVOK 18/11 Q1016 NOSIG
18:30
V
18 °C 10 km+ - 320° 320° 9 kt METAR LFBC 251630Z AUTO 32009KT CAVOK 18/09 Q1015 NOSIG
18:00
V
19 °C 10 km+ - 310° 310° 8 kt METAR LFBC 251600Z AUTO 31008KT 280V340 CAVOK 19/09 Q1016 NOSIG
17:30
V
20 °C 10 km+ - 310° 310° 9 kt METAR LFBC 251530Z AUTO 31009KT CAVOK 20/09 Q1016 NOSIG
17:00
V
20 °C 10 km+ - 300° 300° 8 kt METAR LFBC 251500Z AUTO 30008KT 260V350 CAVOK 20/08 Q1016 NOSIG
Starsze dane

My i osoby trzecie śledzimy twoje zachowanie w internecie na naszej stronie za pomocą plików cookie. Jeśli kontynuujesz, zakładamy, że zgadzasz się z naszą polityką plików cookie. Dowiedz się więcej